Giove Jet — IJNX — position and weather

sailwx.info

Track history (hours):
 
Tides and Currents Weather Stations Pressure Air Temp Water Temp Dewpoint Dewpoint Depression Visibility Wind Speed Wind Dir Waves Ship Positions

Giove Jet

Last reported at 2015-Aug-29 16:15 UTC. Time now 2015-Aug-30 05:53 UTC.
Position N 40°49' E 014°14'.

Length 33 m; draft 1.2 m.

MMSI: 247049500.

Date/timePositionNaut miles runAvg speedWind from/ knotsBaromVisibWave heightAir tempDewpointWater temp
2015-Aug-29 16:15N 40°49' E 014°14'2 2.9
2015-Aug-29 15:33N 40°49' E 014°16'1615.7
2015-Aug-29 14:33N 40°45' E 013°56'12 6.1
2015-Aug-29 12:34N 40°47' E 014°12'1212.1
2015-Aug-29 11:34N 40°45' E 013°56'1412.4
2015-Aug-29 10:24N 40°49' E 014°14'2 2.1
2015-Aug-29 09:26N 40°50' E 014°17'1618.7
2015-Aug-29 08:33N 40°45' E 013°56'5 5.4
2015-Aug-29 07:34N 40°45' E 014°03'9 0.6
2015-Aug-28 16:10N 40°49' E 014°14'2 3.8
2015-Aug-28 15:31N 40°49' E 014°17'1617.1
2015-Aug-28 14:34N 40°45' E 013°56'13 6.3
2015-Aug-28 12:30N 40°48' E 014°13'1010.4
2015-Aug-28 11:34N 40°46' E 014°00'13 9.5
2015-Aug-28 10:11N 40°49' E 014°17'1726.6
2015-Aug-28 09:33N 40°46' E 013°55'3 3.1
2015-Aug-28 08:34N 40°45' E 013°51'17 8.4
2015-Aug-28 06:33N 40°48' E 014°13'8 7.6
2015-Aug-28 05:34N 40°46' E 014°03'11 0.8
2015-Aug-27 15:23N 40°50' E 014°17'2024.3
2015-Aug-27 14:33N 40°44' E 013°52'4 3.7
2015-Aug-27 13:33N 40°45' E 013°56'1611.6
2015-Aug-27 12:09N 40°50' E 014°17'1525.3
2015-Aug-27 11:34N 40°46' E 013°58'5 5.2
2015-Aug-27 10:33N 40°44' E 013°52'1111.4
2015-Aug-27 09:34N 40°47' E 014°06'9 8.6
2015-Aug-27 08:33N 40°49' E 014°17'7 6.4
2015-Aug-27 07:33N 40°43' E 014°19'7 7.1
2015-Aug-27 06:33N 40°48' E 014°13'7 7.5
2015-Aug-27 05:34N 40°46' E 014°04'10 0.7
2015-Aug-26 15:29N 40°49' E 014°17'1617.5
2015-Aug-26 14:33N 40°45' E 013°56'13 6.6
2015-Aug-26 12:33N 40°48' E 014°13'1313.2
2015-Aug-26 11:33N 40°45' E 013°56'1512.6
2015-Aug-26 10:24N 40°49' E 014°15'3 0.7
2015-Aug-26 06:33N 40°47' E 014°12'6 6.3
2015-Aug-26 05:33N 40°46' E 014°04'8 0.5
2015-Aug-25 13:33N 40°50' E 014°14'2 2.4
2015-Aug-25 12:33N 40°47' E 014°12'1212.4
2015-Aug-25 11:33N 40°45' E 013°56'1512.7
2015-Aug-25 10:23N 40°49' E 014°15'3 0.7
2015-Aug-25 06:34N 40°47' E 014°12'6 5.6
2015-Aug-25 05:33N 40°47' E 014°05'7 0.5
2015-Aug-24 13:34N 40°50' E 014°14'3 3.1
2015-Aug-24 12:34N 40°47' E 014°11'1211.6
2015-Aug-24 11:33N 40°45' E 013°56'1512.6
2015-Aug-24 10:23N 40°49' E 014°15'2 2.0
2015-Aug-24 09:33N 40°50' E 014°17'1616.4
2015-Aug-24 08:34N 40°45' E 013°56'12 6.2
2015-Aug-24 06:33N 40°48' E 014°12'10 0.6
2015-Aug-23 15:33N 40°44' E 014°01'3 3.3
2015-Aug-23 14:33N 40°45' E 013°56'16 7.9
2015-Aug-23 12:28N 40°49' E 014°17'1011.4
2015-Aug-23 11:33N 40°40' E 014°22'5 4.8
2015-Aug-23 10:33N 40°44' E 014°19'1111.0
2015-Aug-23 09:32N 40°34' E 014°15'1818.1
2015-Aug-23 08:33N 40°45' E 013°56'6 6.1
2015-Aug-23 07:34N 40°46' E 014°04'8 0.5
2015-Aug-22 16:10N 40°49' E 014°14'1 1.7
2015-Aug-22 15:33N 40°48' E 014°15'1414.5
2015-Aug-22 14:33N 40°45' E 013°56'13 6.4
2015-Aug-22 12:33N 40°48' E 014°13'1313.0
2015-Aug-22 11:33N 40°45' E 013°56'1412.4
2015-Aug-22 10:25N 40°50' E 014°14'2 2.3
2015-Aug-22 09:24N 40°50' E 014°17'1619.5
2015-Aug-22 08:33N 40°45' E 013°56'6 5.6
2015-Aug-22 07:34N 40°45' E 014°04'9 0.6
2015-Aug-21 16:05N 40°49' E 014°14'2 3.7
2015-Aug-21 15:32N 40°49' E 014°17'1616.7
2015-Aug-21 14:33N 40°45' E 013°56'13 6.3
2015-Aug-21 12:33N 40°48' E 014°13'1312.6
2015-Aug-21 11:34N 40°45' E 013°56'1412.7
2015-Aug-21 10:28N 40°50' E 014°14'2 1.1
2015-Aug-21 08:27N 40°50' E 014°17'1618.3
2015-Aug-21 07:33N 40°45' E 013°56'0 0.1
2015-Aug-21 06:32N 40°45' E 013°56'1612.7
2015-Aug-21 05:15N 40°50' E 014°17'1623.4
2015-Aug-21 04:33N 40°45' E 013°56'0 0.0
2015-Aug-20 17:15N 40°45' E 013°56'1614.1
2015-Aug-20 16:06N 40°50' E 014°17'1425.7
2015-Aug-20 15:34N 40°46' E 013°59'3 2.7
2015-Aug-20 14:33N 40°45' E 013°56'13 6.2
2015-Aug-20 12:31N 40°48' E 014°13'1313.2
2015-Aug-20 11:33N 40°45' E 013°56'1413.3
2015-Aug-20 10:29N 40°49' E 014°14'2 0.7
2015-Aug-20 07:22N 40°49' E 014°17'1620.3
2015-Aug-20 06:33N 40°45' E 013°56'6 5.5
2015-Aug-20 05:34N 40°46' E 014°03'  
Track history (hours):
 
Tides and Currents Weather Stations Pressure Air Temp Water Temp Dewpoint Dewpoint Depression Visibility Wind Speed Wind Dir Waves Ship Positions

Giove Jet

Last reported at 2015-Aug-29 16:15 UTC. Time now 2015-Aug-30 05:53 UTC.
Position N 40°49' E 014°14'.

Length 33 m; draft 1.2 m.

MMSI: 247049500.

Date/timePositionNaut miles runAvg speedWind from/ knotsBaromVisibWave heightAir tempDewpointWater temp
2015-Aug-29 16:15N 40°49' E 014°14'2 2.9
2015-Aug-29 15:33N 40°49' E 014°16'1615.7
2015-Aug-29 14:33N 40°45' E 013°56'12 6.1
2015-Aug-29 12:34N 40°47' E 014°12'1212.1
2015-Aug-29 11:34N 40°45' E 013°56'1412.4
2015-Aug-29 10:24N 40°49' E 014°14'2 2.1
2015-Aug-29 09:26N 40°50' E 014°17'1618.7
2015-Aug-29 08:33N 40°45' E 013°56'5 5.4
2015-Aug-29 07:34N 40°45' E 014°03'9 0.6
2015-Aug-28 16:10N 40°49' E 014°14'2 3.8
2015-Aug-28 15:31N 40°49' E 014°17'1617.1
2015-Aug-28 14:34N 40°45' E 013°56'13 6.3
2015-Aug-28 12:30N 40°48' E 014°13'1010.4
2015-Aug-28 11:34N 40°46' E 014°00'13 9.5
2015-Aug-28 10:11N 40°49' E 014°17'1726.6
2015-Aug-28 09:33N 40°46' E 013°55'3 3.1
2015-Aug-28 08:34N 40°45' E 013°51'17 8.4
2015-Aug-28 06:33N 40°48' E 014°13'8 7.6
2015-Aug-28 05:34N 40°46' E 014°03'11 0.8
2015-Aug-27 15:23N 40°50' E 014°17'2024.3
2015-Aug-27 14:33N 40°44' E 013°52'4 3.7
2015-Aug-27 13:33N 40°45' E 013°56'1611.6
2015-Aug-27 12:09N 40°50' E 014°17'1525.3
2015-Aug-27 11:34N 40°46' E 013°58'5 5.2
2015-Aug-27 10:33N 40°44' E 013°52'1111.4
2015-Aug-27 09:34N 40°47' E 014°06'9 8.6
2015-Aug-27 08:33N 40°49' E 014°17'7 6.4
2015-Aug-27 07:33N 40°43' E 014°19'7 7.1
2015-Aug-27 06:33N 40°48' E 014°13'7 7.5
2015-Aug-27 05:34N 40°46' E 014°04'10 0.7
2015-Aug-26 15:29N 40°49' E 014°17'1617.5
2015-Aug-26 14:33N 40°45' E 013°56'13 6.6
2015-Aug-26 12:33N 40°48' E 014°13'1313.2
2015-Aug-26 11:33N 40°45' E 013°56'1512.6
2015-Aug-26 10:24N 40°49' E 014°15'3 0.7
2015-Aug-26 06:33N 40°47' E 014°12'6 6.3
2015-Aug-26 05:33N 40°46' E 014°04'8 0.5
2015-Aug-25 13:33N 40°50' E 014°14'2 2.4
2015-Aug-25 12:33N 40°47' E 014°12'1212.4
2015-Aug-25 11:33N 40°45' E 013°56'1512.7
2015-Aug-25 10:23N 40°49' E 014°15'3 0.7
2015-Aug-25 06:34N 40°47' E 014°12'6 5.6
2015-Aug-25 05:33N 40°47' E 014°05'7 0.5
2015-Aug-24 13:34N 40°50' E 014°14'3 3.1
2015-Aug-24 12:34N 40°47' E 014°11'1211.6
2015-Aug-24 11:33N 40°45' E 013°56'1512.6
2015-Aug-24 10:23N 40°49' E 014°15'2 2.0
2015-Aug-24 09:33N 40°50' E 014°17'1616.4
2015-Aug-24 08:34N 40°45' E 013°56'12 6.2
2015-Aug-24 06:33N 40°48' E 014°12'10 0.6
2015-Aug-23 15:33N 40°44' E 014°01'3 3.3
2015-Aug-23 14:33N 40°45' E 013°56'16 7.9
2015-Aug-23 12:28N 40°49' E 014°17'1011.4
2015-Aug-23 11:33N 40°40' E 014°22'5 4.8
2015-Aug-23 10:33N 40°44' E 014°19'1111.0
2015-Aug-23 09:32N 40°34' E 014°15'1818.1
2015-Aug-23 08:33N 40°45' E 013°56'6 6.1
2015-Aug-23 07:34N 40°46' E 014°04'8 0.5
2015-Aug-22 16:10N 40°49' E 014°14'1 1.7
2015-Aug-22 15:33N 40°48' E 014°15'1414.5
2015-Aug-22 14:33N 40°45' E 013°56'13 6.4
2015-Aug-22 12:33N 40°48' E 014°13'1313.0
2015-Aug-22 11:33N 40°45' E 013°56'1412.4
2015-Aug-22 10:25N 40°50' E 014°14'2 2.3
2015-Aug-22 09:24N 40°50' E 014°17'1619.5
2015-Aug-22 08:33N 40°45' E 013°56'6 5.6
2015-Aug-22 07:34N 40°45' E 014°04'9 0.6
2015-Aug-21 16:05N 40°49' E 014°14'2 3.7
2015-Aug-21 15:32N 40°49' E 014°17'1616.7
2015-Aug-21 14:33N 40°45' E 013°56'13 6.3
2015-Aug-21 12:33N 40°48' E 014°13'1312.6
2015-Aug-21 11:34N 40°45' E 013°56'1412.7
2015-Aug-21 10:28N 40°50' E 014°14'2 1.1
2015-Aug-21 08:27N 40°50' E 014°17'1618.3
2015-Aug-21 07:33N 40°45' E 013°56'0 0.1
2015-Aug-21 06:32N 40°45' E 013°56'1612.7
2015-Aug-21 05:15N 40°50' E 014°17'1623.4
2015-Aug-21 04:33N 40°45' E 013°56'0 0.0
2015-Aug-20 17:15N 40°45' E 013°56'1614.1
2015-Aug-20 16:06N 40°50' E 014°17'1425.7
2015-Aug-20 15:34N 40°46' E 013°59'3 2.7
2015-Aug-20 14:33N 40°45' E 013°56'13 6.2
2015-Aug-20 12:31N 40°48' E 014°13'1313.2
2015-Aug-20 11:33N 40°45' E 013°56'1413.3
2015-Aug-20 10:29N 40°49' E 014°14'2 0.7
2015-Aug-20 07:22N 40°49' E 014°17'1620.3
2015-Aug-20 06:33N 40°45' E 013°56'6 5.5
2015-Aug-20 05:34N 40°46' E 014°03'  

Dump ship's entire track history